Time;durP1;ratioP1;P1;durP2;ratioP2;P2;SDS_P1;SDS_P2;PMS_P1;PMS_P2;Temp;Humidity;BMP_temperature;BMP_pressure;BME280_temperature;BME280_humidity;BME280_pressure;Samples;Min_cycle;Max_cycle;Signal;HPM_P1;HPM_P2
2023/12/03 00:00:00;;;;;;;12.80;3.60;;;;;;;15.68;100.00;98906.80;107985;1289;21996;-63
2023/12/03 00:02:25;;;;;;;11.90;3.70;;;;;;;15.73;100.00;98907.92;107959;1289;21990;-66
2023/12/03 00:04:52;;;;;;;13.10;4.50;;;;;;;15.69;100.00;98908.71;107764;1289;21985;-66
2023/12/03 00:07:18;;;;;;;9.90;3.00;;;;;;;15.63;100.00;98910.65;107965;1289;21986;-63
2023/12/03 00:09:45;;;;;;;11.90;3.30;;;;;;;15.60;100.00;98915.05;108070;1289;22025;-64
2023/12/03 00:12:11;;;;;;;12.70;3.70;;;;;;;15.54;100.00;98912.02;108057;1289;22346;-63
2023/12/03 00:14:36;;;;;;;11.60;3.10;;;;;;;15.47;100.00;98907.08;107958;1289;21994;-63
2023/12/03 00:17:02;;;;;;;15.20;3.50;;;;;;;15.40;100.00;98903.81;108031;1289;22461;-66
2023/12/03 00:19:27;;;;;;;13.40;3.30;;;;;;;15.39;100.00;98912.14;107973;1289;21998;-63
2023/12/03 00:21:53;;;;;;;12.70;4.00;;;;;;;15.35;100.00;98920.66;107999;1289;21995;-67
2023/12/03 00:24:19;;;;;;;11.90;4.40;;;;;;;15.32;100.00;98922.27;108019;1289;21999;-62
2023/12/03 00:26:44;;;;;;;10.90;3.50;;;;;;;15.36;100.00;98928.05;108050;1289;22000;-67
2023/12/03 00:29:10;;;;;;;10.10;3.10;;;;;;;15.30;100.00;98927.81;108017;1289;21989;-65
2023/12/03 00:31:35;;;;;;;12.20;3.10;;;;;;;15.28;100.00;98928.09;108014;1289;21992;-62
2023/12/03 00:34:04;;;;;;;10.50;3.00;;;;;;;15.24;100.00;98926.05;108001;1289;22447;-64
2023/12/03 00:36:30;;;;;;;13.70;4.20;;;;;;;15.21;100.00;98926.05;108032;1289;21992;-68
2023/12/03 00:38:56;;;;;;;16.70;4.90;;;;;;;15.17;100.00;98926.79;107978;1289;21991;-66
2023/12/03 00:41:22;;;;;;;13.00;4.70;;;;;;;15.13;100.00;98921.88;108049;1288;21984;-63
2023/12/03 00:43:48;;;;;;;13.60;4.90;;;;;;;15.10;100.00;98923.11;107994;1289;22455;-66
2023/12/03 00:46:18;;;;;;;9.50;3.40;;;;;;;15.12;100.00;98924.55;108022;1289;21995;-66
2023/12/03 00:48:44;;;;;;;11.00;3.50;;;;;;;15.10;100.00;98929.77;108047;1278;21992;-67
2023/12/03 00:51:09;;;;;;;8.90;3.30;;;;;;;15.10;100.00;98935.27;107997;1289;23735;-63
2023/12/03 00:53:35;;;;;;;12.20;3.00;;;;;;;15.10;100.00;98943.41;108008;1289;22002;-66
2023/12/03 00:56:00;;;;;;;8.90;3.40;;;;;;;15.09;100.00;98941.89;107983;1284;21997;-67
2023/12/03 00:58:26;;;;;;;12.90;3.90;;;;;;;15.05;100.00;98943.64;108001;1289;21988;-66
2023/12/03 01:00:52;;;;;;;13.10;3.30;;;;;;;15.05;100.00;98945.61;108000;1280;21988;-67
2023/12/03 01:03:17;;;;;;;13.80;3.20;;;;;;;15.07;100.00;98949.73;108043;1289;22034;-63
2023/12/03 01:05:43;;;;;;;12.80;3.30;;;;;;;15.07;100.00;98945.00;107959;1289;22001;-63
2023/12/03 01:08:11;;;;;;;9.60;3.60;;;;;;;15.04;100.00;98941.42;107992;1287;22003;-63
2023/12/03 01:10:37;;;;;;;9.60;3.30;;;;;;;14.99;100.00;98942.90;108008;1289;22004;-67
2023/12/03 01:13:02;;;;;;;11.00;3.30;;;;;;;14.98;100.00;98940.70;107961;1289;21993;-63
2023/12/03 01:15:28;;;;;;;10.60;3.40;;;;;;;14.96;100.00;98941.67;107975;1289;22003;-63
2023/12/03 01:17:57;;;;;;;9.50;3.10;;;;;;;14.93;100.00;98946.95;107998;1287;21998;-63
2023/12/03 01:20:22;;;;;;;10.20;2.90;;;;;;;14.92;100.00;98952.64;108034;1289;21992;-66
2023/12/03 01:22:48;;;;;;;11.30;3.10;;;;;;;14.89;100.00;98960.58;108007;1289;21955;-66
2023/12/03 01:25:13;;;;;;;16.90;3.50;;;;;;;14.90;100.00;98965.50;107753;1289;22032;-65
2023/12/03 01:27:39;;;;;;;12.60;3.00;;;;;;;14.90;100.00;98969.73;107979;1289;22028;-66
2023/12/03 01:30:06;;;;;;;8.40;2.90;;;;;;;14.87;100.00;98968.98;107999;1289;21998;-63
2023/12/03 01:32:31;;;;;;;9.50;3.20;;;;;;;14.85;100.00;98973.88;108029;1289;21996;-65
2023/12/03 01:34:57;;;;;;;12.00;3.60;;;;;;;14.83;100.00;98971.48;107940;1280;21997;-64
2023/12/03 01:37:23;;;;;;;10.40;2.80;;;;;;;14.79;100.00;98969.40;108036;1289;22041;-63
2023/12/03 01:39:48;;;;;;;14.30;3.50;;;;;;;14.76;100.00;98963.58;107976;1289;22000;-64
2023/12/03 01:42:14;;;;;;;13.40;3.50;;;;;;;14.73;100.00;98955.41;107992;1289;21992;-63
2023/12/03 01:44:39;;;;;;;10.40;3.40;;;;;;;14.71;100.00;98958.70;108017;1287;21992;-63
2023/12/03 01:47:05;;;;;;;10.80;3.10;;;;;;;14.68;100.00;98962.89;108038;1289;22007;-66
2023/12/03 01:49:31;;;;;;;7.00;2.80;;;;;;;14.65;100.00;98957.19;107984;1289;21992;-66
2023/12/03 01:51:57;;;;;;;15.00;3.70;;;;;;;14.63;100.00;98957.66;108042;1289;21994;-63
2023/12/03 01:54:25;;;;;;;12.60;3.80;;;;;;;14.64;100.00;98960.95;108017;1287;22005;-63
2023/12/03 01:56:51;;;;;;;8.80;2.70;;;;;;;14.61;100.00;98963.09;108068;1289;22056;-62
2023/12/03 01:59:16;;;;;;;12.60;3.10;;;;;;;14.63;100.00;98967.90;107756;1287;21995;-66
2023/12/03 02:01:42;;;;;;;12.80;3.20;;;;;;;14.64;100.00;98967.14;108037;1289;21992;-65
2023/12/03 02:04:08;;;;;;;11.70;3.30;;;;;;;14.64;100.00;98972.40;108053;1289;21992;-66
2023/12/03 02:06:33;;;;;;;9.20;3.40;;;;;;;14.62;100.00;98977.12;107968;1289;21990;-67
2023/12/03 02:08:59;;;;;;;8.40;3.10;;;;;;;14.61;100.00;98978.80;108002;1289;22001;-67
2023/12/03 02:11:25;;;;;;;11.50;4.00;;;;;;;14.58;100.00;98976.48;108302;1281;21989;-66
2023/12/03 02:13:51;;;;;;;68.60;20.00;;;;;;;14.57;100.00;98977.02;107727;1289;22003;-62
2023/12/03 02:16:16;;;;;;;25.40;7.60;;;;;;;14.53;100.00;98983.93;107712;1289;21990;-63
2023/12/03 02:18:43;;;;;;;14.60;4.10;;;;;;;14.51;100.00;98986.69;107999;1289;22456;-67
2023/12/03 02:21:09;;;;;;;11.10;3.90;;;;;;;14.47;100.00;98984.23;108014;1289;21994;-66
2023/12/03 02:23:34;;;;;;;10.20;3.90;;;;;;;14.47;100.00;98998.52;108035;1288;22055;-66
2023/12/03 02:26:00;;;;;;;11.80;6.40;;;;;;;14.46;100.00;99006.19;107998;1289;22025;-63
2023/12/03 02:28:25;;;;;;;9.40;4.30;;;;;;;14.41;100.00;99014.33;107989;1289;21990;-63
2023/12/03 02:30:51;;;;;;;10.20;3.60;;;;;;;14.35;100.00;99052.94;107961;1289;22944;-63
2023/12/03 02:33:17;;;;;;;10.70;3.50;;;;;;;14.24;100.00;99099.70;107975;1289;21989;-65
2023/12/03 02:35:42;;;;;;;9.20;3.30;;;;;;;14.21;100.00;99110.27;107976;1289;21999;-63
2023/12/03 02:38:08;;;;;;;11.20;4.00;;;;;;;14.19;100.00;99119.14;107989;1289;21991;-66
2023/12/03 02:40:36;;;;;;;8.40;3.10;;;;;;;14.17;100.00;99118.71;107985;1289;21998;-64
2023/12/03 02:43:02;;;;;;;7.80;3.80;;;;;;;14.17;100.00;99126.30;108026;1289;21995;-63
2023/12/03 02:45:28;;;;;;;9.30;3.70;;;;;;;14.17;100.00;99129.48;107842;1289;192897;-63
2023/12/03 02:47:53;;;;;;;8.60;3.50;;;;;;;14.17;100.00;99131.27;108020;1289;21984;-63
2023/12/03 02:50:19;;;;;;;8.70;3.80;;;;;;;14.20;100.00;99132.70;107995;1289;21992;-64
2023/12/03 02:52:45;;;;;;;10.00;3.50;;;;;;;14.23;100.00;99135.39;108089;1289;21993;-63
2023/12/03 02:55:10;;;;;;;8.00;3.60;;;;;;;14.25;100.00;99143.92;107952;1288;22009;-66
2023/12/03 02:57:36;;;;;;;14.90;3.70;;;;;;;14.23;100.00;99157.80;108006;1289;22006;-63
2023/12/03 03:00:03;;;;;;;8.90;3.30;;;;;;;14.23;100.00;99174.19;107964;1289;22459;-63
2023/12/03 03:02:29;;;;;;;9.70;3.50;;;;;;;14.25;100.00;99181.52;107989;1289;21995;-66
2023/12/03 03:04:55;;;;;;;11.70;4.20;;;;;;;14.23;100.00;99191.67;107971;1289;21994;-63
2023/12/03 03:07:20;;;;;;;8.90;3.70;;;;;;;14.15;100.00;99194.14;107999;1289;21991;-63
2023/12/03 03:09:46;;;;;;;8.80;4.00;;;;;;;14.13;100.00;99203.74;108039;1289;22026;-63
2023/12/03 03:12:14;;;;;;;8.60;4.10;;;;;;;14.12;100.00;99212.81;108006;1289;22027;-66
2023/12/03 03:14:40;;;;;;;7.90;4.40;;;;;;;14.07;100.00;99215.31;108002;1289;21996;-66
2023/12/03 03:17:06;;;;;;;11.40;4.10;;;;;;;14.07;100.00;99213.94;107999;1286;21995;-63
2023/12/03 03:19:31;;;;;;;9.30;4.50;;;;;;;14.04;100.00;99219.00;107976;1289;21992;-63
2023/12/03 03:21:57;;;;;;;8.70;4.40;;;;;;;14.05;100.00;99220.02;108002;1289;21987;-64
2023/12/03 03:24:22;;;;;;;9.00;4.50;;;;;;;14.07;100.00;99226.97;108026;1289;21989;-66
2023/12/03 03:26:48;;;;;;;10.10;4.50;;;;;;;14.06;100.00;99234.42;107976;1289;22349;-63
2023/12/03 03:29:13;;;;;;;7.20;4.50;;;;;;;14.05;100.00;99239.04;107973;1289;21988;-65
2023/12/03 03:31:39;;;;;;;8.40;4.80;;;;;;;13.98;100.00;99241.45;108022;1289;21991;-65
2023/12/03 03:34:07;;;;;;;11.70;4.80;;;;;;;13.94;100.00;99249.59;107967;1281;22049;-63
2023/12/03 03:36:33;;;;;;;8.40;5.00;;;;;;;13.88;100.00;99255.16;108011;1287;23041;-66
2023/12/03 03:38:59;;;;;;;11.20;5.30;;;;;;;13.76;100.00;99260.09;107974;1289;22755;-65
2023/12/03 03:41:24;;;;;;;7.10;4.80;;;;;;;13.67;100.00;99263.08;107960;1289;22004;-63
2023/12/03 03:43:50;;;;;;;9.20;4.70;;;;;;;13.65;100.00;99264.05;107678;1289;23718;-63
2023/12/03 03:46:15;;;;;;;12.40;5.20;;;;;;;13.61;100.00;99262.98;107898;1289;21995;-63
2023/12/03 03:48:44;;;;;;;10.20;5.60;;;;;;;13.58;100.00;99258.89;107889;1289;21999;-66
2023/12/03 03:51:10;;;;;;;12.20;5.50;;;;;;;13.54;100.00;99258.52;107848;1287;22419;-64
2023/12/03 03:53:35;;;;;;;10.30;5.80;;;;;;;13.49;100.00;99259.63;107956;1289;21999;-62
2023/12/03 03:56:08;;;;;;;9.30;5.00;;;;;;;13.47;100.00;99260.08;107890;1289;21998;-66
2023/12/03 03:58:38;;;;;;;9.30;5.90;;;;;;;13.43;100.00;99262.89;108030;1288;21990;-65
2023/12/03 04:01:05;;;;;;;13.40;6.30;;;;;;;13.37;100.00;99269.96;107774;1289;22450;-67
2023/12/03 04:03:30;;;;;;;10.60;5.80;;;;;;;13.26;100.00;99276.91;107974;1288;22220;-63
2023/12/03 04:05:59;;;;;;;11.50;6.70;;;;;;;13.17;100.00;99279.41;107872;1289;22001;-63
2023/12/03 04:08:25;;;;;;;12.70;6.60;;;;;;;13.09;100.00;99277.77;108018;1289;22006;-63
2023/12/03 04:10:50;;;;;;;10.10;6.20;;;;;;;13.04;100.00;99277.41;107995;1287;22155;-63
2023/12/03 04:13:16;;;;;;;14.00;6.40;;;;;;;12.97;100.00;99275.09;108048;1287;24339;-64
2023/12/03 04:15:42;;;;;;;8.40;6.00;;;;;;;12.92;100.00;99275.98;107984;1289;21997;-68
2023/12/03 04:18:07;;;;;;;13.40;6.90;;;;;;;12.86;100.00;99275.69;107960;1287;22012;-63
2023/12/03 04:20:33;;;;;;;8.80;5.70;;;;;;;12.82;100.00;99285.20;107940;1289;21988;-64
2023/12/03 04:22:59;;;;;;;9.10;6.50;;;;;;;12.76;100.00;99287.53;107952;1289;21989;-67
2023/12/03 04:25:24;;;;;;;11.90;6.00;;;;;;;12.74;100.00;99298.55;107996;1289;21992;-64
2023/12/03 04:27:50;;;;;;;11.50;6.60;;;;;;;12.66;100.00;99318.72;107968;1289;22292;-67
2023/12/03 04:30:15;;;;;;;11.20;7.00;;;;;;;12.62;100.00;99327.30;107974;1289;22025;-67
2023/12/03 04:32:41;;;;;;;9.10;5.80;;;;;;;12.59;100.00;99334.27;107968;1285;21978;-68
2023/12/03 04:35:08;;;;;;;14.80;6.90;;;;;;;12.57;100.00;99341.38;107944;1289;21989;-68
2023/12/03 04:37:34;;;;;;;10.80;7.20;;;;;;;12.58;100.00;99339.58;107972;1289;21990;-63
2023/12/03 04:39:59;;;;;;;11.80;7.10;;;;;;;12.60;100.00;99343.05;107953;1289;21987;-63
2023/12/03 04:42:25;;;;;;;11.50;7.30;;;;;;;12.61;100.00;99343.01;107944;1289;21994;-63
2023/12/03 04:44:50;;;;;;;14.20;7.70;;;;;;;12.59;100.00;99345.86;107999;1289;21990;-63
2023/12/03 04:47:16;;;;;;;10.80;6.70;;;;;;;12.58;100.00;99359.98;108041;1289;22030;-63
2023/12/03 04:49:42;;;;;;;13.80;6.80;;;;;;;12.57;100.00;99352.80;107976;1289;22006;-63
2023/12/03 04:52:07;;;;;;;12.10;7.20;;;;;;;12.58;100.00;99348.77;108095;1289;23265;-66
2023/12/03 04:54:33;;;;;;;11.70;7.90;;;;;;;12.59;100.00;99359.98;108038;1289;22002;-63
2023/12/03 04:56:58;;;;;;;11.50;8.20;;;;;;;12.58;100.00;99362.31;108064;1289;22038;-64
2023/12/03 04:59:24;;;;;;;15.40;7.80;;;;;;;12.54;100.00;99367.90;108059;1289;23037;-66
2023/12/03 05:01:49;;;;;;;13.40;8.10;;;;;;;12.50;100.00;99364.50;108043;1289;22004;-68
2023/12/03 05:04:15;;;;;;;16.40;8.10;;;;;;;12.49;100.00;99369.48;108037;1289;21988;-67
2023/12/03 05:06:40;;;;;;;15.30;8.50;;;;;;;12.48;100.00;99376.20;107991;1289;22004;-67
2023/12/03 05:09:06;;;;;;;14.50;9.20;;;;;;;12.48;100.00;99376.56;107983;1280;21980;-63
2023/12/03 05:11:32;;;;;;;15.80;9.00;;;;;;;12.46;100.00;99376.11;108046;1289;21987;-68
2023/12/03 05:13:57;;;;;;;14.70;8.10;;;;;;;12.44;100.00;99393.60;108006;1289;22030;-66
2023/12/03 05:16:23;;;;;;;15.90;9.20;;;;;;;12.43;100.00;99404.54;108013;1283;21994;-66
2023/12/03 05:18:48;;;;;;;13.60;8.40;;;;;;;12.44;100.00;99410.84;108042;1289;21993;-62
2023/12/03 05:21:14;;;;;;;17.70;8.10;;;;;;;12.47;100.00;99424.45;107983;1289;21993;-61
2023/12/03 05:23:39;;;;;;;13.90;8.80;;;;;;;12.50;100.00;99427.16;107991;1283;23616;-62
2023/12/03 05:26:06;;;;;;;19.90;8.00;;;;;;;12.53;100.00;99435.17;107712;1286;22003;-62
2023/12/03 05:28:31;;;;;;;18.70;8.30;;;;;;;12.55;100.00;99449.86;107974;1281;22113;-62
2023/12/03 05:30:57;;;;;;;17.90;9.10;;;;;;;12.57;100.00;99457.52;107980;1289;22021;-64
2023/12/03 05:33:22;;;;;;;13.10;8.40;;;;;;;12.57;100.00;99462.10;107990;1289;21999;-61
2023/12/03 05:35:48;;;;;;;14.00;8.80;;;;;;;12.53;100.00;99466.15;108018;1287;21986;-66
2023/12/03 05:38:16;;;;;;;11.80;7.80;;;;;;;12.47;100.00;99472.48;108037;1289;21979;-62
2023/12/03 05:40:42;;;;;;;13.70;9.40;;;;;;;12.43;100.00;99476.84;108056;1283;21996;-62
2023/12/03 05:43:08;;;;;;;16.10;9.50;;;;;;;12.39;100.00;99484.72;108044;1289;22043;-63
2023/12/03 05:45:33;;;;;;;13.50;9.20;;;;;;;12.36;100.00;99491.67;108008;1280;21988;-61
2023/12/03 05:47:59;;;;;;;12.00;8.60;;;;;;;12.33;100.00;99496.70;107964;1289;22451;-61
2023/12/03 05:50:24;;;;;;;13.40;8.80;;;;;;;12.30;100.00;99496.46;107985;1289;22008;-65
2023/12/03 05:52:50;;;;;;;11.70;8.70;;;;;;;12.26;100.00;99493.77;108039;1289;21991;-61
2023/12/03 05:55:16;;;;;;;16.40;9.30;;;;;;;12.24;100.00;99492.77;107911;1289;21991;-67
2023/12/03 05:57:41;;;;;;;14.20;9.20;;;;;;;12.21;100.00;99493.75;107926;1287;22021;-67
2023/12/03 06:00:08;;;;;;;12.80;9.30;;;;;;;12.20;100.00;99498.00;107641;1289;22043;-66
2023/12/03 06:02:34;;;;;;;14.50;9.60;;;;;;;12.19;100.00;99503.86;107991;1289;21998;-62
2023/12/03 06:05:02;;;;;;;12.10;8.70;;;;;;;12.18;100.00;99508.98;107999;1289;21997;-61
2023/12/03 06:07:30;;;;;;;15.60;8.50;;;;;;;12.19;100.00;99518.45;108055;1289;21989;-68
2023/12/03 06:09:56;;;;;;;12.20;8.90;;;;;;;12.23;100.00;99524.48;108042;1288;21992;-67
2023/12/03 06:12:21;;;;;;;13.80;9.30;;;;;;;12.27;100.00;99532.08;108013;1289;23661;-68
2023/12/03 06:14:47;;;;;;;15.00;9.60;;;;;;;12.30;100.00;99540.23;107939;1289;21991;-68
2023/12/03 06:17:12;;;;;;;14.30;10.00;;;;;;;12.33;100.00;99544.19;107957;1289;22040;-67
2023/12/03 06:19:38;;;;;;;12.60;9.40;;;;;;;12.36;100.00;99548.48;108013;1289;21997;-62
2023/12/03 06:32:35;;;;;;;14.40;9.50;;;;;;;9.05;100.00;99590.73;107362;1292;549843;-65
2023/12/03 06:35:04;;;;;;;15.60;10.20;;;;;;;11.40;100.00;99574.92;107728;1289;22031;-65
2023/12/03 06:37:30;;;;;;;12.00;8.90;;;;;;;11.70;100.00;99573.02;107548;1295;22003;-65
2023/12/03 06:39:55;;;;;;;12.90;9.10;;;;;;;11.84;100.00;99579.27;107495;1290;22000;-62
2023/12/03 06:42:21;;;;;;;12.30;8.90;;;;;;;11.91;100.00;99588.20;107483;1295;22030;-66
2023/12/03 06:44:46;;;;;;;13.10;8.80;;;;;;;11.96;100.00;99594.38;107542;1292;177940;-66
2023/12/03 06:47:12;;;;;;;12.50;9.10;;;;;;;12.02;100.00;99601.63;107100;1289;1002477;-66
2023/12/03 06:49:42;;;;;;;15.70;10.70;;;;;;;12.03;100.00;99607.38;108091;1287;21991;-66
2023/12/03 06:52:08;;;;;;;16.40;10.10;;;;;;;12.07;100.00;99603.58;108044;1289;23027;-65
2023/12/03 06:54:33;;;;;;;15.50;9.60;;;;;;;12.11;100.00;99599.25;107937;1289;22004;-66
2023/12/03 06:56:59;;;;;;;13.50;9.60;;;;;;;12.15;100.00;99609.33;108055;1288;21994;-66
2023/12/03 06:59:25;;;;;;;15.00;10.20;;;;;;;12.15;100.00;99615.12;108056;1288;21992;-66
2023/12/03 07:01:53;;;;;;;16.50;9.70;;;;;;;12.16;100.00;99624.23;108051;1276;22009;-66
2023/12/03 07:04:20;;;;;;;15.70;10.20;;;;;;;12.18;100.00;99637.54;108046;1288;22045;-66
2023/12/03 07:06:45;;;;;;;14.30;10.30;;;;;;;12.22;100.00;99638.48;108303;1287;22009;-65
2023/12/03 07:09:11;;;;;;;16.90;9.50;;;;;;;12.29;100.00;99636.16;108059;1287;22006;-66
2023/12/03 07:11:37;;;;;;;14.80;9.90;;;;;;;12.40;100.00;99640.38;108087;1289;21999;-65
2023/12/03 07:14:03;;;;;;;15.70;10.10;;;;;;;12.51;100.00;99655.00;108040;1289;21996;-63
2023/12/03 07:16:29;;;;;;;15.50;10.50;;;;;;;12.64;100.00;99659.85;108042;1289;23960;-64
2023/12/03 07:18:55;;;;;;;19.50;10.90;;;;;;;12.63;100.00;99660.40;108118;1287;22010;-65
2023/12/03 07:21:20;;;;;;;14.40;10.10;;;;;;;12.65;100.00;99658.78;108035;1289;22102;-63
2023/12/03 07:23:46;;;;;;;16.60;10.80;;;;;;;12.72;100.00;99661.36;108052;1289;22112;-66
2023/12/03 07:26:11;;;;;;;14.70;10.10;;;;;;;12.80;100.00;99669.55;108076;1287;22001;-63
2023/12/03 07:28:40;;;;;;;13.70;9.90;;;;;;;12.89;100.00;99671.39;108042;1289;21995;-66
2023/12/03 07:31:06;;;;;;;14.50;11.20;;;;;;;12.98;100.00;99671.09;108054;1289;21987;-63
2023/12/03 07:33:32;;;;;;;15.10;9.90;;;;;;;13.05;100.00;99675.06;108130;1280;21987;-63
2023/12/03 07:35:58;;;;;;;14.20;10.60;;;;;;;13.14;100.00;99681.64;108046;1283;21987;-65
2023/12/03 07:38:23;;;;;;;14.90;10.20;;;;;;;13.23;100.00;99691.39;108037;1288;21987;-65
2023/12/03 07:40:49;;;;;;;13.90;9.90;;;;;;;13.28;100.00;99701.95;108061;1276;22006;-65
2023/12/03 07:43:15;;;;;;;15.60;10.40;;;;;;;13.34;100.00;99709.85;108043;1277;21982;-65
2023/12/03 07:45:40;;;;;;;13.90;10.20;;;;;;;13.41;100.00;99718.61;108046;1283;21992;-65
2023/12/03 07:48:06;;;;;;;13.60;10.50;;;;;;;13.47;100.00;99720.91;108050;1288;22035;-65
2023/12/03 07:50:32;;;;;;;18.30;10.90;;;;;;;13.50;100.00;99729.77;107964;1288;21986;-65
2023/12/03 07:52:59;;;;;;;15.00;10.20;;;;;;;13.61;100.00;99735.55;108041;1278;22166;-65
2023/12/03 07:55:24;;;;;;;14.00;10.10;;;;;;;13.74;100.00;99740.91;107962;1288;21992;-65
2023/12/03 07:57:50;;;;;;;14.60;8.80;;;;;;;13.83;100.00;99756.31;108029;1280;23673;-65
2023/12/03 08:00:16;;;;;;;15.00;9.40;;;;;;;13.90;100.00;99773.51;107975;1289;22027;-64
2023/12/03 08:02:44;;;;;;;16.50;10.70;;;;;;;13.98;100.00;99780.79;108017;1289;21998;-61
2023/12/03 08:05:10;;;;;;;13.70;10.30;;;;;;;14.03;100.00;99798.82;108028;1278;21997;-63
2023/12/03 08:07:36;;;;;;;14.30;10.00;;;;;;;14.05;100.00;99797.48;108012;1289;22099;-61
2023/12/03 08:10:02;;;;;;;14.40;10.10;;;;;;;14.11;100.00;99790.58;108049;1283;21997;-61
2023/12/03 08:12:29;;;;;;;13.80;9.30;;;;;;;14.09;100.00;99792.06;108068;1288;21987;-64
2023/12/03 08:14:55;;;;;;;12.50;8.80;;;;;;;14.04;100.00;99806.70;108087;1288;21983;-63
2023/12/03 08:17:20;;;;;;;13.50;9.10;;;;;;;13.99;100.00;99815.53;108080;1288;21984;-61
2023/12/03 08:19:46;;;;;;;12.90;8.10;;;;;;;14.02;100.00;99816.11;108095;1288;21987;-62
2023/12/03 08:22:12;;;;;;;11.40;8.00;;;;;;;14.02;100.00;99817.17;108117;1281;21984;-64
2023/12/03 08:24:37;;;;;;;11.00;7.30;;;;;;;14.02;100.00;99821.77;108102;1284;21994;-62
2023/12/03 08:27:03;;;;;;;11.70;7.20;;;;;;;13.95;100.00;99828.36;108119;1283;21988;-62
2023/12/03 08:29:29;;;;;;;11.90;7.70;;;;;;;14.04;100.00;99832.28;108048;1283;22017;-65
2023/12/03 08:31:55;;;;;;;13.50;7.50;;;;;;;14.00;100.00;99842.85;108016;1288;22453;-62
2023/12/03 08:34:21;;;;;;;10.30;6.60;;;;;;;13.95;100.00;99862.59;108007;1280;21988;-61
2023/12/03 08:36:46;;;;;;;10.70;6.90;;;;;;;13.92;100.00;99881.73;108026;1283;22019;-61
2023/12/03 08:39:12;;;;;;;10.10;6.30;;;;;;;13.93;100.00;99888.76;107978;1278;21983;-61
2023/12/03 08:41:38;;;;;;;8.90;6.00;;;;;;;13.96;100.00;99901.69;108081;1280;22024;-61
2023/12/03 08:44:04;;;;;;;8.60;6.20;;;;;;;13.92;100.00;99914.17;108007;1278;22027;-61
2023/12/03 08:46:29;;;;;;;11.00;6.40;;;;;;;13.90;100.00;99924.48;108033;1283;21986;-61
2023/12/03 08:48:56;;;;;;;9.70;5.60;;;;;;;13.86;100.00;99929.37;108028;1282;21989;-61
2023/12/03 08:51:21;;;;;;;8.40;5.30;;;;;;;13.81;100.00;99929.54;108030;1283;22470;-62
2023/12/03 08:53:47;;;;;;;7.40;4.70;;;;;;;13.74;100.00;99923.05;108038;1283;22044;-61
2023/12/03 08:56:13;;;;;;;25.40;6.80;;;;;;;13.68;100.00;99918.14;106612;1283;1002570;-61
2023/12/03 08:58:41;;;;;;;8.30;5.20;;;;;;;13.65;100.00;99919.13;108068;1288;24067;-61
2023/12/03 09:01:07;;;;;;;11.80;5.10;;;;;;;13.56;100.00;99928.20;107979;1289;22028;-60
2023/12/03 09:03:34;;;;;;;7.70;5.20;;;;;;;13.52;100.00;99932.57;107997;1289;22002;-61
2023/12/03 09:06:00;;;;;;;9.90;4.80;;;;;;;13.49;100.00;99940.95;107941;1283;21994;-61
2023/12/03 09:08:26;;;;;;;7.40;4.90;;;;;;;13.48;100.00;99954.55;107969;1289;21986;-60
2023/12/03 09:10:51;;;;;;;7.50;4.00;;;;;;;13.44;100.00;99962.80;107935;1289;22049;-61
2023/12/03 09:13:17;;;;;;;6.00;3.50;;;;;;;13.41;100.00;99954.05;107907;1286;22362;-61
2023/12/03 09:15:43;;;;;;;6.70;3.60;;;;;;;13.39;100.00;99948.83;107957;1283;22008;-62
2023/12/03 09:18:08;;;;;;;5.00;3.40;;;;;;;13.33;100.00;99969.44;107973;1287;21958;-60
2023/12/03 09:20:34;;;;;;;6.40;3.50;;;;;;;13.27;100.00;99974.00;107970;1287;21986;-61
2023/12/03 09:22:59;;;;;;;6.00;3.30;;;;;;;13.22;100.00;99976.98;107975;1289;22006;-60
2023/12/03 09:25:25;;;;;;;6.60;3.60;;;;;;;13.17;100.00;99985.95;107996;1289;21994;-60
2023/12/03 09:27:50;;;;;;;6.00;3.50;;;;;;;13.16;100.00;99990.00;107986;1288;21991;-60
2023/12/03 09:30:17;;;;;;;5.50;3.50;;;;;;;13.16;100.00;99994.95;108032;1284;21995;-60
2023/12/03 09:32:42;;;;;;;6.00;4.30;;;;;;;13.16;100.00;100000.42;107968;1289;21991;-61
2023/12/03 09:35:08;;;;;;;6.30;3.20;;;;;;;13.14;100.00;99992.90;107648;1286;21987;-61
2023/12/03 09:37:34;;;;;;;7.90;3.90;;;;;;;13.13;100.00;99986.21;107992;1289;22454;-61
2023/12/03 09:40:02;;;;;;;5.40;3.20;;;;;;;13.15;100.00;99983.16;107949;1289;22033;-60
2023/12/03 09:42:28;;;;;;;6.20;3.20;;;;;;;13.17;100.00;99991.02;108017;1286;21987;-61
2023/12/03 09:45:04;;;;;;;5.80;3.30;;;;;;;13.13;100.00;100002.96;107650;1289;22051;-60
2023/12/03 09:47:34;;;;;;;4.80;3.20;;;;;;;13.08;100.00;100008.92;108043;1289;22030;-62
2023/12/03 09:50:00;;;;;;;7.90;4.00;;;;;;;13.02;100.00;99996.58;107989;1289;22003;-60
2023/12/03 09:52:27;;;;;;;7.00;4.80;;;;;;;13.06;100.00;99994.50;107688;1289;21996;-60
2023/12/03 09:54:58;;;;;;;5.80;3.80;;;;;;;13.08;100.00;100003.98;107855;1286;22023;-61
2023/12/03 09:57:29;;;;;;;6.50;3.40;;;;;;;13.05;100.00;100019.91;108046;1288;21997;-61
2023/12/03 09:59:57;;;;;;;6.30;3.90;;;;;;;13.00;100.00;100035.21;107916;1288;22000;-61
2023/12/03 10:02:26;;;;;;;7.10;3.90;;;;;;;13.02;100.00;100041.50;108074;1284;21989;-61
2023/12/03 10:04:53;;;;;;;6.10;4.30;;;;;;;13.00;100.00;100052.84;108057;1288;21989;-61
2023/12/03 10:07:21;;;;;;;8.10;4.40;;;;;;;13.02;100.00;100052.60;108003;1288;21999;-61
2023/12/03 10:09:46;;;;;;;6.60;3.70;;;;;;;13.02;100.00;100067.73;107971;1288;22756;-60
2023/12/03 10:12:14;;;;;;;8.00;4.20;;;;;;;12.91;99.17;100070.15;107770;1280;21992;-60
2023/12/03 10:14:41;;;;;;;11.40;4.80;;;;;;;12.86;99.25;100059.71;108046;1289;21987;-59
2023/12/03 10:17:07;;;;;;;6.60;4.50;;;;;;;12.81;98.93;100059.67;108048;1280;21989;-58
2023/12/03 10:19:33;;;;;;;6.60;4.10;;;;;;;12.81;99.34;100055.09;108125;1287;22027;-60
2023/12/03 10:21:58;;;;;;;8.70;4.00;;;;;;;12.85;100.00;100048.64;108026;1289;22044;-61
2023/12/03 10:24:24;;;;;;;7.40;4.40;;;;;;;12.86;100.00;100035.58;107975;1289;22029;-59
2023/12/03 10:26:54;;;;;;;6.20;4.00;;;;;;;12.90;100.00;100045.68;107970;1289;21987;-60
2023/12/03 10:29:19;;;;;;;7.40;4.20;;;;;;;12.82;99.26;100073.18;107957;1289;21995;-59
2023/12/03 10:31:49;;;;;;;8.10;4.50;;;;;;;12.78;99.39;100093.02;107960;1289;21983;-60
2023/12/03 10:34:16;;;;;;;10.00;5.10;;;;;;;12.70;98.39;100099.73;107864;1289;21995;-60
2023/12/03 10:36:44;;;;;;;8.90;4.60;;;;;;;12.63;96.21;100102.19;108048;1288;22021;-60
2023/12/03 10:39:16;;;;;;;9.50;4.50;;;;;;;12.61;97.49;100119.84;108080;1283;22078;-60
2023/12/03 10:41:46;;;;;;;12.70;5.20;;;;;;;12.59;97.73;100138.55;108158;1286;21987;-59
2023/12/03 10:44:24;;;;;;;10.80;4.60;;;;;;;12.60;98.71;100144.34;108106;1280;21991;-59
2023/12/03 10:46:50;;;;;;;10.30;3.90;;;;;;;12.61;100.00;100139.90;107896;1283;23061;-59
2023/12/03 10:49:16;;;;;;;9.20;4.10;;;;;;;12.62;100.00;100139.89;107990;1286;21996;-62
2023/12/03 10:51:43;;;;;;;6.90;4.10;;;;;;;12.64;100.00;100144.05;108136;1288;23112;-59
2023/12/03 10:54:10;;;;;;;6.80;4.10;;;;;;;12.64;99.64;100139.66;108108;1288;22008;-61
2023/12/03 10:56:35;;;;;;;7.60;3.50;;;;;;;12.63;98.86;100149.19;108106;1288;21987;-60
2023/12/03 10:59:03;;;;;;;6.20;3.30;;;;;;;12.63;98.24;100156.40;108070;1283;21992;-59
2023/12/03 11:01:30;;;;;;;6.80;3.90;;;;;;;12.61;96.47;100151.36;107840;1288;22016;-59
2023/12/03 11:04:01;;;;;;;6.10;3.70;;;;;;;12.62;97.03;100135.32;108099;1283;21991;-61
2023/12/03 11:06:33;;;;;;;8.30;4.40;;;;;;;12.56;95.44;100140.94;108044;1288;23119;-60
2023/12/03 11:08:59;;;;;;;7.20;4.20;;;;;;;12.50;94.55;100171.67;108096;1288;21991;-61
2023/12/03 11:11:25;;;;;;;6.80;4.00;;;;;;;12.49;95.46;100173.12;108069;1288;21995;-60
2023/12/03 11:13:53;;;;;;;6.00;3.80;;;;;;;12.44;95.11;100165.66;108080;1288;21991;-61
2023/12/03 11:16:19;;;;;;;6.40;3.50;;;;;;;12.36;94.05;100177.98;107992;1289;21992;-60